Terminal Aerodrome Forecast
Issued by NWS

Home | Current Version | Previous Version | Text Only | Print | Product List | Glossary On
Versions: 1 2 3 4 5 6 7 8 9 10 11 12 13 14
000
FTUS45 KRIW 032320
TAFRKS
TAF
KRKS 032320Z 0400/0424 22012G18KT P6SM FEW080 SCT200
     FM040100 21009KT P6SM VCSH SCT080
     FM040500 18007KT P6SM FEW080 SCT250
     FM041900 20017G28KT P6SM BKN180=

USA.gov is the U.S. government's official web portal to all federal, state and local government web resources and services.